Time;durP1;ratioP1;P1;durP2;ratioP2;P2;SDS_P1;SDS_P2;PMS_P1;PMS_P2;Temp;Humidity;BMP_temperature;BMP_pressure;BME280_temperature;BME280_humidity;BME280_pressure;Samples;Min_cycle;Max_cycle;Signal;HPM_P1;HPM_P2
2023/04/08 00:01:06;;;;;;;19.80;8.30;;;;;;;6.22;96.11;100478.23;108839;1259;58010;-62
2023/04/08 00:03:55;;;;;;;20.70;9.10;;;;;;;6.17;96.52;100477.11;108988;1258;60339;-62
2023/04/08 00:06:43;;;;;;;22.00;9.20;;;;;;;6.12;97.07;100477.69;108880;1259;72373;-62
2023/04/08 00:09:31;;;;;;;18.90;8.50;;;;;;;6.06;96.93;100486.46;109008;1259;67930;-63
2023/04/08 00:12:20;;;;;;;19.10;9.50;;;;;;;6.03;97.56;100487.67;108864;1259;72783;-64
2023/04/08 00:15:08;;;;;;;21.60;9.40;;;;;;;6.03;97.72;100486.09;108912;1259;59208;-63
2023/04/08 00:17:56;;;;;;;20.60;9.40;;;;;;;6.04;97.99;100487.82;108916;1259;60089;-63
2023/04/08 00:20:44;;;;;;;17.60;9.10;;;;;;;6.04;98.06;100490.09;108943;1259;70677;-63
2023/04/08 00:23:33;;;;;;;21.80;8.80;;;;;;;6.02;97.67;100494.27;109029;1259;66844;-64
2023/04/08 00:26:20;;;;;;;19.00;8.40;;;;;;;5.99;98.46;100491.55;108963;1259;72826;-62
2023/04/08 00:29:08;;;;;;;19.10;8.80;;;;;;;6.03;98.49;100497.18;108817;1259;58121;-65
2023/04/08 00:31:56;;;;;;;19.60;8.20;;;;;;;6.03;98.52;100495.57;108937;1259;58945;-65
2023/04/08 00:34:44;;;;;;;18.90;8.20;;;;;;;5.98;98.53;100491.27;108950;1259;72084;-64
2023/04/08 00:37:33;;;;;;;20.10;8.60;;;;;;;5.95;98.51;100491.58;108871;1259;67870;-64
2023/04/08 00:40:21;;;;;;;17.50;8.80;;;;;;;5.94;98.73;100490.20;108873;1259;73909;-64
2023/04/08 00:43:09;;;;;;;16.80;9.10;;;;;;;5.96;98.86;100485.91;108829;1259;60823;-64
2023/04/08 00:45:57;;;;;;;19.60;9.00;;;;;;;5.97;98.91;100485.33;108983;1259;59952;-62
2023/04/08 00:48:44;;;;;;;17.70;8.20;;;;;;;5.98;98.77;100487.23;108959;1259;71980;-64
2023/04/08 00:51:36;;;;;;;19.40;8.90;;;;;;;5.96;98.64;100494.48;108929;1259;67494;-65
2023/04/08 00:54:24;;;;;;;17.90;8.40;;;;;;;5.94;98.78;100493.17;108940;1259;72408;-63
2023/04/08 00:57:12;;;;;;;21.60;9.30;;;;;;;5.94;98.96;100491.09;108946;1259;59183;-65
2023/04/08 01:00:00;;;;;;;21.00;9.20;;;;;;;5.94;98.98;100490.90;108915;1259;58904;-62
2023/04/08 01:03:13;;;;;;;20.70;9.20;;;;;;;5.94;98.68;100494.27;108917;1259;71717;-62
2023/04/08 01:06:54;;;;;;;21.50;10.30;;;;;;;5.92;98.58;100494.55;109017;1258;67071;-65
2023/04/08 01:10:04;;;;;;;20.60;9.90;;;;;;;5.91;99.04;100495.14;108618;1267;72897;-63
2023/04/08 01:12:58;;;;;;;20.30;9.80;;;;;;;5.90;99.15;100496.92;108604;1266;60261;-62
2023/04/08 01:15:48;;;;;;;22.10;9.50;;;;;;;5.91;99.26;100498.98;108479;1266;59473;-62
2023/04/08 01:18:37;;;;;;;21.50;10.10;;;;;;;5.93;99.24;100503.45;108534;1267;72329;-64
2023/04/08 01:21:27;;;;;;;21.70;9.90;;;;;;;5.95;99.27;100501.93;108589;1267;69496;-64
2023/04/08 01:24:34;;;;;;;20.20;10.00;;;;;;;5.98;99.22;100506.94;108609;1267;72410;-66
2023/04/08 01:27:23;;;;;;;18.90;9.30;;;;;;;5.98;99.06;100512.73;108599;1267;59058;-63
2023/04/08 01:30:13;;;;;;;21.20;9.90;;;;;;;5.97;98.87;100513.50;108525;1267;60412;-64
2023/04/08 01:33:03;;;;;;;35.20;16.40;;;;;;;5.97;99.20;100515.25;108632;1266;73412;-64
2023/04/08 01:35:54;;;;;;;77.50;33.60;;;;;;;5.98;99.27;100521.22;108634;1266;67878;-61
2023/04/08 01:38:44;;;;;;;63.20;27.70;;;;;;;5.98;99.29;100524.36;108611;1266;71861;-65
2023/04/08 01:41:36;;;;;;;65.30;30.20;;;;;;;6.00;99.46;100521.48;108968;1259;58201;-65
2023/04/08 01:44:25;;;;;;;108.00;43.70;;;;;;;6.02;99.18;100523.31;108940;1259;60073;-64
2023/04/08 01:47:14;;;;;;;130.20;52.40;;;;;;;6.06;99.55;100526.77;108261;1259;1002266;-65
2023/04/08 01:50:06;;;;;;;113.40;48.60;;;;;;;6.11;99.39;100528.13;108955;1259;67671;-65
2023/04/08 01:52:56;;;;;;;62.40;27.40;;;;;;;6.13;99.20;100530.29;108967;1259;72476;-63
2023/04/08 01:55:44;;;;;;;50.40;23.40;;;;;;;6.15;99.08;100531.96;108128;1259;1002468;-64
2023/04/08 01:58:44;;;;;;;28.40;13.70;;;;;;;6.16;98.96;100535.45;108914;1258;57802;-63
2023/04/08 02:01:34;;;;;;;24.10;11.30;;;;;;;6.11;98.72;100540.13;108976;1258;72018;-64
2023/04/08 02:04:23;;;;;;;22.90;11.10;;;;;;;6.05;98.44;100540.23;108955;1259;67968;-66
2023/04/08 02:07:11;;;;;;;22.90;10.60;;;;;;;6.02;98.82;100535.48;108935;1259;73690;-65
2023/04/08 02:09:59;;;;;;;22.30;10.30;;;;;;;5.99;98.69;100536.70;108839;1259;56945;-64
2023/04/08 02:12:47;;;;;;;24.50;12.00;;;;;;;5.97;99.06;100541.15;108992;1259;59088;-63
2023/04/08 02:15:41;;;;;;;23.20;11.00;;;;;;;5.97;99.24;100534.63;108990;1258;72063;-64
2023/04/08 02:18:31;;;;;;;23.80;11.70;;;;;;;5.96;99.20;100533.79;109071;1259;68892;-63
2023/04/08 02:21:26;;;;;;;25.60;11.60;;;;;;;5.96;99.22;100535.73;108945;1259;72954;-66
2023/04/08 02:24:16;;;;;;;28.80;12.10;;;;;;;5.98;99.64;100540.05;108932;1259;59640;-64
2023/04/08 02:27:07;;;;;;;27.80;11.00;;;;;;;6.02;99.52;100542.83;108882;1259;61403;-64
2023/04/08 02:29:56;;;;;;;23.80;11.30;;;;;;;6.06;99.43;100546.72;108999;1259;72189;-66
2023/04/08 02:32:46;;;;;;;24.70;12.00;;;;;;;6.07;99.22;100548.05;109071;1259;69242;-64
2023/04/08 02:35:35;;;;;;;25.60;12.00;;;;;;;6.06;98.94;100549.70;108900;1259;72508;-67
2023/04/08 02:38:28;;;;;;;21.50;11.20;;;;;;;6.05;98.72;100555.38;109044;1259;56897;-65
2023/04/08 02:41:18;;;;;;;23.70;11.00;;;;;;;6.04;99.15;100556.17;108829;1259;263746;-66
2023/04/08 02:44:06;;;;;;;19.90;10.40;;;;;;;6.04;99.19;100555.12;108982;1259;72411;-66
2023/04/08 02:46:54;;;;;;;23.00;10.90;;;;;;;6.03;99.12;100553.77;108986;1259;68703;-64
2023/04/08 02:49:42;;;;;;;20.10;10.10;;;;;;;5.99;98.80;100557.80;109002;1259;73452;-64
2023/04/08 02:52:30;;;;;;;23.70;10.80;;;;;;;5.95;98.59;100560.78;108906;1259;59312;-64
2023/04/08 02:55:18;;;;;;;28.90;13.20;;;;;;;5.91;98.87;100564.88;108895;1264;60064;-63
2023/04/08 02:58:06;;;;;;;36.90;20.90;;;;;;;5.88;99.05;100563.08;108864;1259;70713;-63
2023/04/08 03:00:54;;;;;;;38.50;21.10;;;;;;;5.90;99.41;100563.91;108952;1259;66684;-66
2023/04/08 03:03:42;;;;;;;40.00;24.50;;;;;;;5.89;99.61;100567.07;108303;1259;1002954;-64
2023/04/08 03:06:31;;;;;;;41.80;23.40;;;;;;;5.90;99.73;100567.89;108834;1259;59809;-63
2023/04/08 03:09:19;;;;;;;40.90;23.20;;;;;;;5.93;99.54;100564.23;108928;1259;61565;-65
2023/04/08 03:12:09;;;;;;;33.60;19.90;;;;;;;5.97;99.54;100569.30;108757;1259;72295;-64
2023/04/08 03:14:57;;;;;;;27.40;14.10;;;;;;;6.00;99.70;100563.91;108939;1259;67740;-65
2023/04/08 03:17:46;;;;;;;24.50;12.90;;;;;;;6.01;99.00;100566.70;108980;1259;71092;-64
2023/04/08 03:20:34;;;;;;;29.00;13.00;;;;;;;5.98;99.32;100568.61;109002;1259;57700;-65
2023/04/08 03:23:21;;;;;;;25.20;11.60;;;;;;;5.96;99.44;100568.32;108923;1259;58145;-64
2023/04/08 03:26:10;;;;;;;22.30;11.50;;;;;;;5.94;99.00;100573.66;109012;1259;70002;-64
2023/04/08 03:28:57;;;;;;;25.50;12.50;;;;;;;5.90;98.94;100570.73;108806;1261;67837;-64
2023/04/08 03:31:45;;;;;;;24.90;13.00;;;;;;;5.88;99.14;100574.70;108883;1262;72545;-64
2023/04/08 03:34:34;;;;;;;23.80;11.90;;;;;;;5.86;99.12;100575.52;108862;1262;59670;-62
2023/04/08 03:37:22;;;;;;;25.80;12.00;;;;;;;5.84;99.40;100568.20;108821;1262;60270;-64
2023/04/08 03:40:11;;;;;;;24.30;12.90;;;;;;;5.82;99.24;100574.30;108797;1262;71986;-66
2023/04/08 03:42:59;;;;;;;21.60;12.40;;;;;;;5.79;99.15;100580.57;108792;1262;67666;-64
2023/04/08 03:45:47;;;;;;;24.30;12.20;;;;;;;5.78;99.44;100584.73;108689;1262;71160;-64
2023/04/08 03:48:34;;;;;;;23.70;12.70;;;;;;;5.78;99.91;100584.84;108793;1262;59407;-63
2023/04/08 03:51:24;;;;;;;22.00;11.70;;;;;;;5.84;100.00;100588.11;108754;1262;60650;-64
2023/04/08 03:54:12;;;;;;;21.90;12.60;;;;;;;5.89;100.00;100594.39;108785;1263;72223;-63
2023/04/08 03:56:59;;;;;;;25.60;12.60;;;;;;;5.94;100.00;100599.77;108779;1263;66934;-63
2023/04/08 03:59:48;;;;;;;24.60;12.40;;;;;;;5.99;99.87;100597.11;108864;1259;71183;-64
2023/04/08 04:02:35;;;;;;;25.10;13.10;;;;;;;6.01;99.79;100606.16;108965;1259;58079;-64
2023/04/08 04:05:24;;;;;;;26.30;12.40;;;;;;;6.01;99.89;100606.00;109043;1259;60376;-64
2023/04/08 04:08:12;;;;;;;24.20;12.70;;;;;;;6.01;99.83;100605.64;108928;1259;73409;-65
2023/04/08 04:11:03;;;;;;;26.30;13.00;;;;;;;6.00;99.65;100611.32;108918;1259;69033;-66
2023/04/08 04:13:51;;;;;;;22.80;12.20;;;;;;;5.96;99.29;100611.48;108928;1259;71451;-66
2023/04/08 04:16:39;;;;;;;23.90;11.90;;;;;;;5.94;99.10;100612.08;108898;1259;58800;-64
2023/04/08 04:19:30;;;;;;;25.90;12.40;;;;;;;5.95;99.72;100610.45;108863;1259;60098;-66
2023/04/08 04:22:19;;;;;;;22.70;12.70;;;;;;;5.94;99.79;100611.58;108856;1259;71068;-68
2023/04/08 04:25:08;;;;;;;26.20;12.60;;;;;;;5.96;99.85;100612.17;108889;1259;66883;-65
2023/04/08 04:27:56;;;;;;;29.60;13.60;;;;;;;5.99;99.79;100617.02;108957;1259;71224;-65
2023/04/08 04:30:44;;;;;;;28.60;13.50;;;;;;;6.00;99.81;100617.68;108936;1259;59277;-66
2023/04/08 04:33:32;;;;;;;27.60;13.80;;;;;;;6.01;99.80;100623.45;108951;1259;60493;-67
2023/04/08 04:36:20;;;;;;;23.60;13.50;;;;;;;6.00;99.86;100620.98;108832;1258;72129;-65
2023/04/08 04:39:08;;;;;;;24.40;12.90;;;;;;;6.02;99.84;100624.95;109019;1259;66350;-64
2023/04/08 04:41:57;;;;;;;23.20;13.00;;;;;;;6.07;99.97;100623.83;108967;1259;72717;-67
2023/04/08 04:44:45;;;;;;;28.70;13.80;;;;;;;6.08;99.90;100626.38;108838;1259;56952;-66
2023/04/08 04:47:33;;;;;;;27.90;13.50;;;;;;;6.08;99.78;100625.00;109049;1259;58720;-65
2023/04/08 04:50:21;;;;;;;29.80;13.90;;;;;;;6.09;99.93;100628.47;108897;1258;71091;-68
2023/04/08 04:53:08;;;;;;;25.70;14.50;;;;;;;6.10;99.91;100633.20;108999;1259;66840;-66
2023/04/08 04:55:56;;;;;;;25.90;14.70;;;;;;;6.11;100.00;100634.17;109004;1259;72849;-65
2023/04/08 04:58:44;;;;;;;30.80;14.50;;;;;;;6.16;100.00;100636.23;108908;1258;59611;-68
2023/04/08 05:01:32;;;;;;;34.20;15.40;;;;;;;6.20;100.00;100640.23;108952;1259;60273;-64
2023/04/08 05:04:20;;;;;;;29.30;14.10;;;;;;;6.26;100.00;100640.85;108930;1259;72034;-65
2023/04/08 05:07:09;;;;;;;28.60;15.50;;;;;;;6.32;100.00;100641.23;109011;1258;66017;-66
2023/04/08 05:09:56;;;;;;;26.00;12.80;;;;;;;6.40;100.00;100645.79;108920;1259;71298;-68
2023/04/08 05:12:44;;;;;;;27.30;14.30;;;;;;;6.49;100.00;100644.95;108993;1259;59771;-67
2023/04/08 05:15:32;;;;;;;28.40;13.90;;;;;;;6.59;100.00;100644.45;108920;1259;60126;-67
2023/04/08 05:18:20;;;;;;;27.50;13.70;;;;;;;6.70;100.00;100641.96;108978;1259;70257;-74
2023/04/08 05:21:08;;;;;;;27.50;12.60;;;;;;;6.79;99.99;100644.79;108931;1259;66445;-70
2023/04/08 05:23:57;;;;;;;27.00;13.50;;;;;;;6.88;99.76;100649.10;108893;1259;71133;-74
2023/04/08 05:26:46;;;;;;;30.20;14.00;;;;;;;6.96;99.44;100651.70;108838;1259;58280;-72
2023/04/08 05:29:34;;;;;;;32.10;14.10;;;;;;;7.02;99.13;100656.70;108826;1259;59166;-73
2023/04/08 05:32:22;;;;;;;29.30;13.70;;;;;;;7.05;98.68;100657.57;108776;1259;72217;-73
2023/04/08 05:35:10;;;;;;;29.80;14.00;;;;;;;7.08;98.55;100652.83;108927;1259;66752;-73
2023/04/08 05:37:59;;;;;;;33.90;14.70;;;;;;;7.13;98.40;100654.68;108078;1259;1003007;-73
2023/04/08 05:40:47;;;;;;;28.20;13.90;;;;;;;7.20;98.49;100659.05;108945;1259;58246;-72
2023/04/08 05:43:36;;;;;;;32.70;15.60;;;;;;;7.24;97.76;100662.36;108683;1264;58738;-72
2023/04/08 05:46:26;;;;;;;29.40;16.30;;;;;;;7.28;98.13;100657.89;108632;1264;72411;-75
2023/04/08 05:49:16;;;;;;;26.80;15.10;;;;;;;7.30;97.31;100659.39;107895;1265;1003093;-75
2023/04/08 05:52:08;;;;;;;30.80;16.50;;;;;;;7.31;97.34;100662.86;107881;1264;1002248;-74
2023/04/08 05:54:56;;;;;;;28.80;14.80;;;;;;;7.33;97.41;100666.79;108467;1264;57059;-73
2023/04/08 05:57:44;;;;;;;31.30;16.30;;;;;;;7.42;97.15;100670.96;108087;1270;58754;-75
2023/04/08 06:00:34;;;;;;;31.50;15.70;;;;;;;7.50;97.06;100671.23;107757;1273;72391;-75
2023/04/08 06:03:23;;;;;;;33.80;16.90;;;;;;;7.60;96.71;100671.86;107946;1273;67210;-72
2023/04/08 06:06:11;;;;;;;28.10;14.60;;;;;;;7.68;96.19;100677.41;107651;1273;72764;-74
2023/04/08 06:08:59;;;;;;;26.00;14.90;;;;;;;7.76;95.68;100678.61;107739;1273;58051;-74
2023/04/08 06:11:49;;;;;;;26.10;13.60;;;;;;;7.82;95.44;100684.94;107793;1273;59058;-74
2023/04/08 06:14:37;;;;;;;32.10;16.30;;;;;;;7.90;95.35;100682.58;107824;1272;72554;-74
2023/04/08 06:17:26;;;;;;;30.70;15.30;;;;;;;8.01;95.71;100684.04;108024;1273;65938;-74
2023/04/08 06:20:16;;;;;;;25.80;14.20;;;;;;;8.15;94.70;100689.30;108302;1272;72618;-76
2023/04/08 06:23:05;;;;;;;26.20;14.20;;;;;;;8.20;93.72;100691.98;108132;1272;58403;-74
2023/04/08 06:25:53;;;;;;;28.90;15.30;;;;;;;8.28;93.20;100698.27;107995;1272;58805;-70
2023/04/08 06:28:42;;;;;;;28.40;15.60;;;;;;;8.30;92.89;100702.58;108462;1266;71315;-70
2023/04/08 06:31:30;;;;;;;30.20;15.50;;;;;;;8.29;92.75;100707.05;108651;1264;67560;-71
2023/04/08 06:34:18;;;;;;;26.60;14.80;;;;;;;8.25;92.84;100707.41;108701;1263;72510;-71
2023/04/08 06:37:06;;;;;;;24.30;13.70;;;;;;;8.22;92.82;100716.98;108414;1264;58161;-70
2023/04/08 06:39:56;;;;;;;30.80;14.90;;;;;;;8.22;93.12;100721.04;108541;1263;60022;-70
2023/04/08 06:42:50;;;;;;;28.80;15.60;;;;;;;8.26;93.49;100723.13;108518;1263;73311;-70
2023/04/08 06:45:46;;;;;;;28.80;15.60;;;;;;;8.38;93.71;100727.92;108610;1263;68324;-72
2023/04/08 06:48:36;;;;;;;27.50;13.80;;;;;;;8.47;93.18;100732.02;108651;1265;71444;-71
2023/04/08 06:51:24;;;;;;;28.30;14.60;;;;;;;8.49;92.58;100730.83;108599;1263;58717;-70
2023/04/08 06:54:12;;;;;;;25.30;13.30;;;;;;;8.53;92.41;100730.23;108837;1263;60114;-70
2023/04/08 06:57:00;;;;;;;26.20;14.60;;;;;;;8.60;92.64;100725.83;108810;1261;72028;-69
2023/04/08 06:59:49;;;;;;;25.90;12.80;;;;;;;8.70;92.40;100729.27;108907;1259;67974;-70
2023/04/08 07:02:37;;;;;;;27.60;13.80;;;;;;;8.77;91.71;100732.77;108796;1259;72452;-69
2023/04/08 07:05:30;;;;;;;24.70;14.40;;;;;;;8.85;91.91;100737.04;108891;1259;59044;-69
2023/04/08 07:08:18;;;;;;;25.20;13.40;;;;;;;8.95;91.10;100737.52;108811;1259;59074;-69
2023/04/08 07:11:07;;;;;;;27.20;13.80;;;;;;;9.03;90.77;100740.91;108813;1259;72249;-70
2023/04/08 07:13:55;;;;;;;25.60;15.10;;;;;;;9.13;90.31;100739.77;108784;1259;66496;-68
2023/04/08 07:16:43;;;;;;;22.60;12.50;;;;;;;9.28;90.31;100737.83;109038;1259;72812;-70
2023/04/08 07:19:33;;;;;;;21.20;12.00;;;;;;;9.34;89.02;100740.98;108921;1259;58728;-69
2023/04/08 07:22:21;;;;;;;27.40;15.30;;;;;;;9.38;88.60;100743.02;108887;1259;58058;-69
2023/04/08 07:25:09;;;;;;;25.20;14.20;;;;;;;9.45;88.16;100746.52;108992;1259;70645;-67
2023/04/08 07:27:57;;;;;;;25.90;14.80;;;;;;;9.46;87.43;100742.52;108949;1259;67712;-68
2023/04/08 07:30:45;;;;;;;25.60;13.60;;;;;;;9.50;87.21;100749.04;108877;1259;72771;-69
2023/04/08 07:33:33;;;;;;;24.00;12.20;;;;;;;9.51;87.07;100750.05;108816;1259;57014;-67
2023/04/08 07:36:21;;;;;;;24.70;12.70;;;;;;;9.56;86.60;100753.80;108941;1259;58969;-66
2023/04/08 07:39:09;;;;;;;22.70;13.70;;;;;;;9.61;86.33;100755.45;108935;1259;72492;-67
2023/04/08 07:41:57;;;;;;;26.00;14.10;;;;;;;9.68;86.55;100755.71;109026;1259;67834;-69
2023/04/08 07:44:45;;;;;;;24.00;13.40;;;;;;;9.77;86.19;100754.14;108863;1259;71413;-67
2023/04/08 07:47:35;;;;;;;23.90;13.00;;;;;;;9.87;85.83;100756.64;108922;1259;57713;-67
2023/04/08 07:50:24;;;;;;;21.20;12.20;;;;;;;10.00;84.68;100759.92;108932;1259;59148;-69
2023/04/08 07:53:12;;;;;;;24.40;13.10;;;;;;;10.13;84.04;100761.39;108767;1259;70360;-66
2023/04/08 07:56:04;;;;;;;23.50;12.40;;;;;;;10.24;83.45;100761.00;108968;1259;68273;-67
2023/04/08 07:58:53;;;;;;;23.60;11.90;;;;;;;10.42;83.42;100762.34;108897;1259;72656;-65
2023/04/08 08:01:42;;;;;;;20.70;11.50;;;;;;;10.57;81.54;100766.54;108979;1259;58286;-66
2023/04/08 08:04:30;;;;;;;21.50;11.30;;;;;;;10.62;81.11;100767.46;108957;1259;57944;-65
2023/04/08 08:07:18;;;;;;;19.50;11.10;;;;;;;10.70;81.51;100769.01;108954;1258;70725;-67
2023/04/08 08:10:07;;;;;;;19.80;11.40;;;;;;;10.79;80.56;100770.74;108795;1259;68315;-71
2023/04/08 08:12:55;;;;;;;19.40;11.60;;;;;;;10.83;80.28;100769.95;108788;1259;70071;-69
2023/04/08 08:15:43;;;;;;;21.90;11.60;;;;;;;10.86;79.72;100770.61;108632;1260;57034;-68
2023/04/08 08:18:32;;;;;;;20.20;11.60;;;;;;;10.87;79.62;100776.05;108844;1259;58367;-66
2023/04/08 08:21:20;;;;;;;20.10;10.90;;;;;;;10.90;79.21;100778.83;108895;1263;71136;-65
2023/04/08 08:24:08;;;;;;;20.20;10.90;;;;;;;10.92;79.42;100779.98;108931;1259;67761;-66
2023/04/08 08:26:56;;;;;;;20.30;11.40;;;;;;;10.93;79.31;100783.30;108901;1259;71192;-67
2023/04/08 08:29:44;;;;;;;23.10;12.20;;;;;;;10.96;79.03;100788.07;108821;1259;58177;-69
2023/04/08 08:32:31;;;;;;;22.70;11.30;;;;;;;11.03;79.45;100790.07;108998;1259;60049;-67
2023/04/08 08:35:19;;;;;;;19.70;11.40;;;;;;;11.08;79.10;100786.71;108893;1259;70639;-66
2023/04/08 08:38:08;;;;;;;20.60;11.60;;;;;;;11.12;79.31;100788.91;108926;1259;66380;-68
2023/04/08 08:40:57;;;;;;;23.30;13.60;;;;;;;11.18;79.25;100790.64;108791;1259;72264;-68
2023/04/08 08:43:46;;;;;;;21.50;11.50;;;;;;;11.25;79.04;100790.70;108914;1259;57716;-69
2023/04/08 08:46:35;;;;;;;21.00;12.50;;;;;;;11.27;78.33;100794.15;109021;1259;60476;-69
2023/04/08 08:49:23;;;;;;;21.60;13.20;;;;;;;11.27;77.91;100792.88;108916;1259;70731;-66
2023/04/08 08:52:19;;;;;;;25.30;14.60;;;;;;;11.38;78.26;100796.73;108941;1259;67919;-67
2023/04/08 08:55:09;;;;;;;24.60;14.50;;;;;;;11.59;77.74;100796.34;108932;1259;71553;-71
2023/04/08 08:58:17;;;;;;;24.50;14.10;;;;;;;11.81;76.98;100795.48;108967;1259;56833;-69
2023/04/08 09:01:36;;;;;;;22.20;12.80;;;;;;;12.02;76.30;100799.88;108934;1259;59263;-69
2023/04/08 09:04:25;;;;;;;23.00;13.40;;;;;;;12.34;74.85;100804.16;109036;1259;71992;-70
2023/04/08 09:07:13;;;;;;;22.00;13.10;;;;;;;12.65;73.66;100804.70;108812;1259;67655;-67
2023/04/08 09:10:02;;;;;;;22.80;12.80;;;;;;;13.16;72.83;100807.70;108764;1259;72347;-66
2023/04/08 09:12:55;;;;;;;20.80;12.90;;;;;;;13.70;68.77;100800.46;109006;1259;58558;-68
2023/04/08 09:16:10;;;;;;;21.00;12.10;;;;;;;14.56;65.67;100803.21;108798;1259;60216;-68
2023/04/08 09:19:09;;;;;;;21.20;12.50;;;;;;;15.56;62.76;100800.46;108957;1259;72209;-69
2023/04/08 09:22:10;;;;;;;18.40;11.60;;;;;;;16.36;60.22;100798.86;108835;1259;69157;-71
2023/04/08 09:24:57;;;;;;;16.40;9.70;;;;;;;17.14;56.82;100799.40;108920;1259;70551;-71
2023/04/08 09:27:45;;;;;;;17.80;10.10;;;;;;;17.66;55.86;100793.05;108952;1259;57235;-68
2023/04/08 09:30:33;;;;;;;16.40;9.50;;;;;;;17.92;53.64;100789.21;109037;1259;58897;-69
2023/04/08 09:33:30;;;;;;;16.10;9.90;;;;;;;18.00;53.12;100790.20;109017;1259;70056;-66
2023/04/08 09:36:19;;;;;;;15.30;9.40;;;;;;;18.17;52.21;100796.25;108900;1259;66302;-67
2023/04/08 09:39:07;;;;;;;16.70;9.80;;;;;;;18.23;52.61;100791.54;108965;1259;72703;-70
2023/04/08 09:42:00;;;;;;;17.80;10.00;;;;;;;18.37;52.30;100795.92;108953;1259;56875;-70
2023/04/08 09:44:48;;;;;;;16.00;10.00;;;;;;;18.57;51.00;100794.67;108947;1259;61390;-71
2023/04/08 09:48:07;;;;;;;18.70;10.60;;;;;;;18.88;50.25;100796.41;108946;1259;72995;-69
2023/04/08 09:50:56;;;;;;;15.80;10.10;;;;;;;19.50;48.69;100793.92;108940;1259;68940;-68
2023/04/08 09:53:58;;;;;;;15.30;9.80;;;;;;;20.21;46.27;100791.46;108948;1259;72220;-68
2023/04/08 09:57:15;;;;;;;14.80;8.80;;;;;;;20.59;44.42;100790.88;108882;1265;56907;-68
2023/04/08 10:00:17;;;;;;;16.70;9.50;;;;;;;20.27;44.73;100788.35;108953;1259;58416;-72
2023/04/08 10:03:15;;;;;;;16.30;9.40;;;;;;;20.20;44.52;100789.42;108892;1262;73303;-67
2023/04/08 10:06:03;;;;;;;14.60;8.90;;;;;;;19.98;43.96;100793.06;108863;1262;66804;-68
2023/04/08 10:08:51;;;;;;;15.30;9.30;;;;;;;19.77;44.43;100793.02;108861;1264;72925;-74
2023/04/08 10:11:39;;;;;;;15.40;8.20;;;;;;;19.54;44.01;100790.91;108878;1261;57812;-71
2023/04/08 10:14:27;;;;;;;14.30;8.30;;;;;;;19.82;43.78;100789.46;108832;1261;60181;-68
2023/04/08 10:17:29;;;;;;;15.20;9.50;;;;;;;19.63;43.57;100786.61;108830;1261;71445;-70
2023/04/08 10:20:35;;;;;;;17.60;9.80;;;;;;;19.40;44.23;100790.92;108853;1262;66635;-68
2023/04/08 10:23:55;;;;;;;14.90;9.20;;;;;;;19.88;44.39;100790.72;108857;1262;72251;-69
2023/04/08 10:26:44;;;;;;;16.00;9.80;;;;;;;20.39;43.28;100789.48;108833;1261;56901;-70
2023/04/08 10:29:32;;;;;;;15.40;9.70;;;;;;;20.57;41.91;100788.21;108839;1261;59266;-70
2023/04/08 10:32:29;;;;;;;14.90;9.40;;;;;;;20.19;42.15;100789.73;108629;1265;71737;-75
2023/04/08 10:35:35;;;;;;;17.10;9.70;;;;;;;20.67;42.57;100788.75;108710;1263;66741;-70
2023/04/08 10:38:23;;;;;;;17.40;10.40;;;;;;;21.05;41.70;100783.27;108714;1263;73331;-69
2023/04/08 10:41:20;;;;;;;14.10;9.30;;;;;;;20.78;42.15;100783.89;108708;1264;57556;-67
2023/04/08 10:44:20;;;;;;;16.20;9.30;;;;;;;20.34;42.27;100781.99;108701;1263;60296;-70
2023/04/08 10:47:08;;;;;;;15.50;9.50;;;;;;;19.67;42.23;100780.55;108746;1263;72063;-72
2023/04/08 10:49:56;;;;;;;14.90;9.20;;;;;;;19.92;42.36;100775.98;108741;1263;68415;-67
2023/04/08 10:52:53;;;;;;;14.80;8.20;;;;;;;21.29;40.70;100776.83;108705;1264;72597;-69
2023/04/08 10:55:41;;;;;;;15.50;9.70;;;;;;;21.68;39.04;100770.91;108677;1268;56881;-68
2023/04/08 10:58:29;;;;;;;14.00;9.20;;;;;;;22.07;38.48;100766.22;108745;1263;58187;-72
2023/04/08 11:01:18;;;;;;;15.50;9.00;;;;;;;23.22;36.33;100762.33;108704;1264;71002;-67
2023/04/08 11:04:12;;;;;;;16.50;8.60;;;;;;;24.19;34.57;100755.07;108705;1264;66386;-71
2023/04/08 11:07:04;;;;;;;15.10;8.80;;;;;;;25.02;32.99;100756.45;108634;1264;72451;-71
2023/04/08 11:09:52;;;;;;;12.20;7.80;;;;;;;25.62;31.79;100751.12;108803;1265;58006;-67
2023/04/08 11:12:40;;;;;;;12.90;7.30;;;;;;;26.02;30.93;100750.04;108865;1262;60053;-71
2023/04/08 11:15:29;;;;;;;14.80;9.00;;;;;;;26.09;30.04;100746.73;108899;1260;70841;-75
2023/04/08 11:18:17;;;;;;;14.40;8.00;;;;;;;25.89;30.69;100748.05;108950;1260;67905;-68
2023/04/08 11:21:10;;;;;;;13.20;8.00;;;;;;;25.64;30.61;100742.92;108916;1261;72809;-65
2023/04/08 11:23:59;;;;;;;15.70;10.20;;;;;;;25.32;31.05;100748.73;108875;1260;58964;-68
2023/04/08 11:26:48;;;;;;;16.40;10.30;;;;;;;24.99;32.30;100747.72;108883;1259;60027;-72
2023/04/08 11:29:38;;;;;;;17.30;10.20;;;;;;;24.70;33.28;100743.64;108959;1259;72850;-67
2023/04/08 11:32:27;;;;;;;17.00;10.00;;;;;;;24.47;33.16;100746.16;108967;1260;67995;-69
2023/04/08 11:35:15;;;;;;;16.90;10.10;;;;;;;24.51;32.97;100741.77;108875;1259;72849;-68
2023/04/08 11:38:04;;;;;;;14.00;7.80;;;;;;;24.45;32.68;100741.10;108857;1259;56821;-69
2023/04/08 11:40:57;;;;;;;13.10;7.70;;;;;;;24.63;31.98;100737.46;109010;1259;58982;-67
2023/04/08 11:43:54;;;;;;;12.70;7.60;;;;;;;24.88;31.03;100738.27;108960;1260;72360;-68
2023/04/08 11:46:54;;;;;;;12.10;7.40;;;;;;;25.04;30.90;100738.35;109009;1259;67658;-69
2023/04/08 11:49:45;;;;;;;13.10;7.70;;;;;;;24.71;30.31;100739.45;108983;1259;72383;-70
2023/04/08 11:52:59;;;;;;;13.70;8.20;;;;;;;24.14;30.60;100737.41;108864;1259;56952;-69
2023/04/08 11:55:48;;;;;;;15.40;7.90;;;;;;;23.72;31.49;100742.95;108987;1259;58754;-71
2023/04/08 11:58:36;;;;;;;13.80;8.20;;;;;;;23.34;32.56;100740.17;108803;1259;72273;-67
2023/04/08 12:01:23;;;;;;;13.70;8.30;;;;;;;22.64;33.37;100737.01;109009;1260;66735;-71
2023/04/08 12:04:11;;;;;;;13.40;8.10;;;;;;;21.96;34.55;100739.32;108945;1259;73721;-70
2023/04/08 12:07:00;;;;;;;17.60;8.80;;;;;;;21.54;35.82;100743.17;108830;1259;59103;-67
2023/04/08 12:09:47;;;;;;;16.40;9.20;;;;;;;21.59;36.64;100742.51;108808;1259;57749;-74
2023/04/08 12:12:36;;;;;;;15.90;9.60;;;;;;;21.43;37.19;100741.92;108925;1260;72082;-69
2023/04/08 12:15:24;;;;;;;15.10;10.00;;;;;;;21.20;38.08;100743.06;108998;1260;66316;-71
2023/04/08 12:18:12;;;;;;;15.90;8.90;;;;;;;20.73;37.92;100748.55;108890;1259;72482;-72
2023/04/08 12:21:00;;;;;;;18.70;10.50;;;;;;;20.22;39.24;100742.27;108851;1260;57844;-71
2023/04/08 12:23:48;;;;;;;17.40;10.90;;;;;;;19.93;39.59;100742.98;108858;1260;59166;-71
2023/04/08 12:26:37;;;;;;;17.10;10.30;;;;;;;19.75;40.14;100738.67;108766;1260;71074;-65
2023/04/08 12:29:24;;;;;;;18.10;10.90;;;;;;;19.47;40.44;100740.60;108834;1260;68065;-66
2023/04/08 12:32:13;;;;;;;16.40;10.50;;;;;;;19.24;41.08;100735.89;108837;1260;72672;-68
2023/04/08 12:35:02;;;;;;;17.90;10.60;;;;;;;19.03;42.43;100737.02;109024;1260;56987;-70
2023/04/08 12:37:49;;;;;;;19.00;11.90;;;;;;;18.90;43.16;100742.08;108593;1263;59185;-67
2023/04/08 12:40:37;;;;;;;22.20;13.30;;;;;;;18.75;43.72;100742.20;108688;1264;70689;-67
2023/04/08 12:43:25;;;;;;;21.40;12.60;;;;;;;18.55;43.78;100743.61;108658;1264;67084;-69
2023/04/08 12:46:13;;;;;;;21.10;12.30;;;;;;;18.44;44.23;100745.13;108684;1264;72822;-64
2023/04/08 12:49:01;;;;;;;22.80;13.40;;;;;;;18.29;44.85;100744.29;108634;1264;57004;-66
2023/04/08 12:51:52;;;;;;;21.10;12.90;;;;;;;18.09;45.40;100747.31;108657;1264;59089;-67